Hilton Head Island, South Carolina
Current Conditions -  °F | °C
As of 8:50 AM on Thursday 30 Oct 2014 (Local Time) from KHXD Reporting Station
Overcast Overcast  
Wind Chill: 66°   Ceiling: 1200
Heat Index: 66°   Visibility: 10mi
Dew Point: 64°   Wind: 7mph
Humidity: 94%   Direction: 350°N
Pressure: 29.99"   Gusts: NA
Location:  32.15°N, 80.76°W
Report Text: KHXD 301250Z 35006KT 10SM OVC012 19/18 A2999
Loading
Personal Weather Stations






























Interactive Weather Map New forecast layout! Learn more

10-Day Weather Forecast

Advertisements
Track Severe Weather on mobile